This is the latest recevied weather packets stored in our database for station/object WA0LM. If no packets are shown the sender has not sent any weather packets the latest 10 day(s).
| Time | Temp. | Humidity | Pressure | Rain* | Wind** | Luminosity | Snow |
|---|---|---|---|---|---|---|---|
| 1778063050 | 1.67° C | 68% | 1013.3 hPa | 0 mm | - | 0 W/m² | - |
| 1778062747 | 1.67° C | 67% | 1013.4 hPa | 0 mm | - | 0 W/m² | - |
| 1778062443 | 1.67° C | 66% | 1013.4 hPa | 0 mm | - | 0 W/m² | - |
| 1778062140 | 1.67° C | 70% | 1013.6 hPa | 0 mm | - | 0 W/m² | - |
| 1778061838 | 1.67° C | 67% | 1013.4 hPa | 0 mm | - | 0 W/m² | - |
| 1778061536 | 1.67° C | 65% | 1013.3 hPa | 0 mm | - | 0 W/m² | - |
| 1778061234 | 1.67° C | 68% | 1013.4 hPa | 0 mm | - | 0 W/m² | - |
| 1778060930 | 1.67° C | 67% | 1013.4 hPa | 0 mm | - | 0 W/m² | - |
| 1778060629 | 1.67° C | 66% | 1013.4 hPa | 0 mm | - | 0 W/m² | - |
| 1778060327 | 1.67° C | 66% | 1013.3 hPa | 0 mm | - | 0 W/m² | - |
| 1778060024 | 1.67° C | 66% | 1013.4 hPa | 0 mm | - | 0 W/m² | - |
| 1778059721 | 1.67° C | 67% | 1013.4 hPa | 0 mm | - | 0 W/m² | - |
| 1778059419 | 1.67° C | 67% | 1013.3 hPa | 0 mm | - | 0 W/m² | - |
| 1778059116 | 1.67° C | 68% | 1013.3 hPa | 0 mm | - | 0 W/m² | - |
| 1778058814 | 1.67° C | 66% | 1013.3 hPa | 0 mm | - | 0 W/m² | - |
| 1778058511 | 2.22° C | 65% | 1013.3 hPa | 0 mm | - | 0 W/m² | - |
| 1778058208 | 1.67° C | 67% | 1013.2 hPa | 0 mm | - | 0 W/m² | - |
| 1778057905 | 2.22° C | 69% | 1013.2 hPa | 0 mm | - | 0 W/m² | - |
| 1778057601 | 1.67° C | 66% | 1013.2 hPa | 0 mm | - | 0 W/m² | - |
| 1778057298 | 1.67° C | 65% | 1013.1 hPa | 0 mm | - | 0 W/m² | - |
| 1778056994 | 1.67° C | 65% | 1013.2 hPa | 0 mm | - | 0 W/m² | - |
| 1778056691 | 1.67° C | 63% | 1013.1 hPa | 0 mm | - | 0 W/m² | - |
| 1778056389 | 1.67° C | 65% | 1013.2 hPa | 0 mm | - | 0 W/m² | - |
| 1778056086 | 2.22° C | 65% | 1013.1 hPa | 0 mm | - | 0 W/m² | - |
| 1778055782 | 1.67° C | 66% | 1013.1 hPa | 0 mm | - | 0 W/m² | - |
* Rain latest hour (hover to see other rain measurements)
** Current wind speed in m/s (hover to see current wind gust speed)